ENEV Airport Information

Runway Information
Runway 17 Length 9236 ft width 148 ft Elevation 81 ft Threshold 302 ft Heading 178
Runway 35 Length 9236 ft Width 148 ft Elevation 80 ft Threshold 214 ft Heading 358
Airport Frequencies
Type ACC Name BODO CON Frequency 126.45 MHZ
Type ATIS Name ATIS Frequency 126.025 MHZ
Type TWR Name TWR Frequency 118 MHZ
Airport Navaids
Type VOR-DME Name Evenes Frequency 117350 KHZ
Type TACAN Name Evenes Frequency 134000 KHZ
Type NDB Name Odden Frequency 365 KHZ
Airport Weather Information & NOTAM
ADDS - METARS form results

(1749 UTC 01 December 2022)
Data provider http://aviationweather.gov/metar/data/
 
METAR text: ENEV 011720Z VRB01KT 9999 SCT008 BKN015 01/00 Q1037 RMK WIND 1400FT VRB02KT
Conditions at: ENEV (EVENES (CIV/MIL), NO) observed 1720 UTC 01 December 2022
Temperature: 1.0°C (34°F)
Dewpoint: 0.0°C (32°F) [RH = 93%]
Pressure (altimeter): 30.62 inches Hg (1037.0 mb)
Winds: variable direction winds at 1 MPH (1 knots; 0.5 m/s)
Visibility: 6 or more miles (10+ km)
Ceiling: 1500 feet AGL
Clouds: scattered clouds at 800 feet AGL
broken clouds at 1500 feet AGL
Weather: no significant weather observed at this time

METAR text: ENEV 011650Z VRB02KT 9999 FEW005 SCT010 BKN015 00/00 Q1037 RMK WIND 1400FT VRB02KT
Conditions at: ENEV (EVENES (CIV/MIL), NO) observed 1650 UTC 01 December 2022
Temperature: 0.0°C (32°F)
Dewpoint: 0.0°C (32°F) [RH = 100%]
Pressure (altimeter): 30.62 inches Hg (1037.0 mb)
Winds: variable direction winds at 2 MPH (2 knots; 1.0 m/s)
Visibility: 6 or more miles (10+ km)
Ceiling: 1500 feet AGL
Clouds: few clouds at 500 feet AGL
scattered clouds at 1000 feet AGL
broken clouds at 1500 feet AGL
Weather: no significant weather observed at this time

Forecast for: ENEV (EVENES (CIV/MIL), NO)
Text: TAF ENEV 0112/0212 VRB03KT 9999 SCT005 BKN016
Forecast period: 1200 UTC 01 December 2022 to 1200 UTC 02 December 2022
Forecast type: FROM: standard forecast or significant change
Winds: variable direction winds at 3 MPH (3 knots; 1.5 m/s)
Visibility: 6 or more miles (10+ km)
Ceiling: 1600 feet AGL
Clouds: scattered clouds at 500 feet AGL
broken clouds at 1600 feet AGL
Weather: no significant weather forecast for this period
Text: PROB40
Forecast period: 1200 to 1800 UTC 01 December 2022
Forecast type: TEMPORARY: The following changes expected for less than half the time period
Visibility: 2.49 miles (4.01 km)
Ceiling: 400 feet AGL
Clouds: broken clouds at 400 feet AGL
Weather: BR  (mist)
Text: TEMPO 0112/0118 4000 BR BKN004
Forecast period: 1800 UTC 01 December 2022 to 0700 UTC 02 December 2022
Forecast type: TEMPORARY: The following changes expected for less than half the time period
Visibility: 0.50 miles (0.80 km)
Ceiling: indefinite ceiling with vertical visibility of 400 feet AGL
Clouds: obscured sky
Weather: FZFG  (freezing fog)